Time;durP1;ratioP1;P1;durP2;ratioP2;P2;SDS_P1;SDS_P2;PMS_P1;PMS_P2;Temp;Humidity;BMP_temperature;BMP_pressure;BME280_temperature;BME280_humidity;BME280_pressure;Samples;Min_cycle;Max_cycle;Signal;HPM_P1;HPM_P2
2022/09/07 00:01:06;;;;;;;8.15;6.28;;;19.50;99.90;;;;;;5103212;28;20059;-48
2022/09/07 00:03:32;;;;;;;8.30;6.03;;;19.50;99.90;;;;;;5102407;28;20047;-48
2022/09/07 00:05:58;;;;;;;6.60;5.97;;;19.40;99.90;;;;;;5102264;28;20074;-47
2022/09/07 00:08:26;;;;;;;10.13;6.13;;;19.40;99.90;;;;;;5106669;28;20071;-48
2022/09/07 00:11:03;;;;;;;10.18;6.28;;;19.40;99.90;;;;;;5079415;28;20059;-48
2022/09/07 00:13:35;;;;;;;8.00;5.93;;;19.40;99.90;;;;;;5103779;28;20772;-48
2022/09/07 00:16:10;;;;;;;8.15;6.25;;;19.40;99.90;;;;;;5101966;28;20063;-48
2022/09/07 00:18:36;;;;;;;9.77;6.50;;;19.40;99.90;;;;;;5085882;28;20117;-50
2022/09/07 00:21:05;;;;;;;8.38;6.57;;;19.30;99.90;;;;;;5111551;28;20044;-53
2022/09/07 00:23:32;;;;;;;12.48;6.93;;;19.30;99.90;;;;;;5111975;28;20036;-50
2022/09/07 00:25:59;;;;;;;7.75;7.05;;;19.20;99.90;;;;;;5092876;28;20165;-49
2022/09/07 00:28:25;;;;;;;;;;;19.10;99.90;;;;;;5111358;28;20036;-51
2022/09/07 00:30:51;;;;;;;10.70;7.95;;;19.10;99.90;;;;;;5108375;28;19927;-52
2022/09/07 00:33:16;;;;;;;10.13;7.93;;;19.10;99.90;;;;;;5112340;28;20493;-52
2022/09/07 00:35:42;;;;;;;19.30;10.15;;;19.10;99.90;;;;;;5113587;28;20397;-54
2022/09/07 00:38:08;;;;;;;17.98;10.40;;;18.90;99.90;;;;;;5104763;28;20118;-51
2022/09/07 00:40:34;;;;;;;14.38;9.45;;;18.80;99.90;;;;;;5108634;28;20032;-53
2022/09/07 00:43:00;;;;;;;25.15;11.75;;;18.60;99.90;;;;;;5107264;28;20047;-55
2022/09/07 00:45:25;;;;;;;15.02;11.73;;;18.60;99.90;;;;;;5114428;28;20078;-56
2022/09/07 00:47:58;;;;;;;12.27;11.07;;;18.40;99.90;;;;;;5107025;28;20401;-51
2022/09/07 00:50:41;;;;;;;11.88;10.40;;;18.30;99.90;;;;;;5108040;28;20036;-53
2022/09/07 00:53:18;;;;;;;12.65;11.10;;;18.20;99.90;;;;;;5080773;28;20554;-56
2022/09/07 00:55:46;;;;;;;;;;;18.20;99.90;;;;;;5101143;28;20047;-52
2022/09/07 00:58:12;;;;;;;14.75;13.20;;;18.10;99.90;;;;;;5097171;28;19927;-53
2022/09/07 01:00:40;;;;;;;14.63;13.27;;;18.10;99.90;;;;;;5100657;28;20457;-53
2022/09/07 01:03:07;;;;;;;15.07;13.57;;;18.00;99.90;;;;;;5080552;28;20394;-51
2022/09/07 01:05:54;;;;;;;15.80;14.35;;;18.10;99.90;;;;;;5097849;28;20036;-52
2022/09/07 01:08:19;;;;;;;;;;;18.00;99.90;;;;;;5100473;28;20046;-53
2022/09/07 01:10:46;;;;;;;14.50;13.15;;;18.00;99.90;;;;;;5096564;28;19920;-52
2022/09/07 01:13:11;;;;;;;15.10;13.65;;;18.00;99.90;;;;;;5078986;28;20044;-50
2022/09/07 01:15:42;;;;;;;15.68;14.07;;;18.00;99.90;;;;;;5102142;28;20035;-50
2022/09/07 01:18:17;;;;;;;15.23;13.82;;;18.10;99.90;;;;;;5097949;28;20031;-51
2022/09/07 01:20:57;;;;;;;17.60;16.10;;;18.00;99.90;;;;;;5097453;28;20097;-52
2022/09/07 01:23:44;;;;;;;17.05;15.45;;;18.00;99.90;;;;;;5097840;28;20039;-50
2022/09/07 01:26:32;;;;;;;17.70;16.02;;;17.90;99.90;;;;;;5097271;28;20059;-50
2022/09/07 01:29:15;;;;;;;19.48;16.23;;;17.80;99.90;;;;;;5099003;28;20177;-49
2022/09/07 01:32:08;;;;;;;14.55;13.13;;;17.80;99.90;;;;;;5080068;28;20493;-51
2022/09/07 01:34:36;;;;;;;15.13;13.75;;;17.80;99.90;;;;;;5099914;28;20047;-48
2022/09/07 01:37:20;;;;;;;15.73;14.32;;;17.80;99.90;;;;;;5085207;28;20100;-51
2022/09/07 01:39:53;;;;;;;14.50;13.30;;;17.80;99.90;;;;;;5096284;28;20077;-48
2022/09/07 01:42:28;;;;;;;14.70;13.40;;;17.80;99.90;;;;;;5100049;28;20079;-52
2022/09/07 01:45:03;;;;;;;15.48;13.85;;;17.80;99.90;;;;;;5096440;28;20046;-51
2022/09/07 01:47:51;;;;;;;13.25;12.15;;;17.80;99.90;;;;;;5097768;28;20044;-49
2022/09/07 01:50:22;;;;;;;13.00;11.90;;;17.80;99.90;;;;;;5101391;28;20047;-50
2022/09/07 01:53:10;;;;;;;13.57;11.60;;;17.80;99.90;;;;;;5098384;28;20119;-50
2022/09/07 01:55:42;;;;;;;14.57;13.38;;;17.70;99.90;;;;;;5100111;28;20134;-49
2022/09/07 01:58:18;;;;;;;12.35;11.23;;;17.80;99.90;;;;;;5102464;28;20093;-52
2022/09/07 02:00:49;;;;;;;11.73;10.82;;;17.80;99.90;;;;;;5103637;28;20132;-49
2022/09/07 02:03:32;;;;;;;11.63;10.65;;;17.80;99.90;;;;;;5102314;28;20142;-49
2022/09/07 02:06:06;;;;;;;10.80;9.95;;;17.80;99.90;;;;;;5101862;28;20168;-50
2022/09/07 02:08:49;;;;;;;11.55;10.70;;;17.80;99.90;;;;;;5099298;28;20499;-48
2022/09/07 02:11:20;;;;;;;12.48;11.38;;;17.80;99.90;;;;;;5100165;28;20052;-53
2022/09/07 02:14:23;;;;;;;10.43;9.52;;;17.90;99.90;;;;;;5104240;28;20122;-49
2022/09/07 02:17:08;;;;;;;10.35;9.52;;;17.90;99.90;;;;;;5100964;28;20378;-47
2022/09/07 02:20:05;;;;;;;11.93;10.95;;;17.90;99.90;;;;;;5101764;28;20043;-52
2022/09/07 02:22:37;;;;;;;14.30;13.05;;;17.90;99.90;;;;;;5086111;28;20039;-48
2022/09/07 02:25:06;;;;;;;12.48;11.48;;;17.90;99.90;;;;;;5080719;28;20138;-50
2022/09/07 02:27:39;;;;;;;11.80;10.60;;;17.90;99.90;;;;;;5105199;28;20445;-48
2022/09/07 02:30:06;;;;;;;14.63;13.32;;;17.90;99.90;;;;;;5083060;28;20035;-47
2022/09/07 02:32:31;;;;;;;13.32;12.13;;;17.80;99.90;;;;;;5103229;28;20055;-49
2022/09/07 02:34:57;;;;;;;11.88;10.98;;;17.80;99.90;;;;;;5102307;28;20043;-47
2022/09/07 02:37:26;;;;;;;13.05;11.85;;;17.70;99.90;;;;;;5104204;28;20051;-46
2022/09/07 02:39:52;;;;;;;13.43;12.18;;;17.70;99.90;;;;;;5101689;28;20043;-51
2022/09/07 02:42:17;;;;;;;12.40;11.27;;;17.60;99.90;;;;;;5085639;28;20183;-53
2022/09/07 02:44:45;;;;;;;11.65;10.75;;;17.60;99.90;;;;;;5098921;28;20482;-50
2022/09/07 02:47:25;;;;;;;13.15;11.80;;;17.50;99.90;;;;;;5105608;28;20059;-48
2022/09/07 02:50:17;;;;;;;12.65;11.23;;;17.50;99.90;;;;;;5102162;28;20046;-47
2022/09/07 02:52:57;;;;;;;12.23;11.18;;;17.50;99.90;;;;;;5103987;28;20456;-52
2022/09/07 02:55:37;;;;;;;12.15;11.02;;;17.40;99.90;;;;;;5095628;28;20042;-48
2022/09/07 02:58:13;;;;;;;11.77;10.70;;;17.40;99.90;;;;;;5097078;28;20235;-47
2022/09/07 03:00:51;;;;;;;12.35;11.25;;;17.40;99.90;;;;;;5096903;28;20046;-48
2022/09/07 03:03:17;;;;;;;12.98;11.88;;;17.40;99.90;;;;;;5079878;28;20039;-47
2022/09/07 03:05:58;;;;;;;12.85;11.80;;;17.40;99.90;;;;;;5101511;28;20089;-47
2022/09/07 03:08:39;;;;;;;12.43;11.43;;;17.40;99.90;;;;;;5096651;28;20074;-48
2022/09/07 03:11:05;;;;;;;13.38;12.38;;;17.40;99.90;;;;;;5096308;28;20051;-48
2022/09/07 03:13:31;;;;;;;12.70;11.60;;;17.40;99.90;;;;;;5096471;28;20056;-50
2022/09/07 03:15:57;;;;;;;15.82;14.55;;;17.40;99.90;;;;;;5103017;28;20106;-52
2022/09/07 03:18:24;;;;;;;15.32;14.00;;;17.50;99.90;;;;;;5098622;28;20119;-47
2022/09/07 03:20:50;;;;;;;16.08;14.65;;;17.50;99.90;;;;;;5103361;28;20698;-49
2022/09/07 03:23:16;;;;;;;16.20;14.77;;;17.50;99.90;;;;;;5100433;28;20035;-53
2022/09/07 03:25:42;;;;;;;15.45;14.15;;;17.50;99.90;;;;;;5098926;28;20047;-52
2022/09/07 03:28:08;;;;;;;17.30;15.70;;;17.50;99.90;;;;;;5082284;28;20032;-48
2022/09/07 03:30:33;;;;;;;16.73;15.15;;;17.40;99.90;;;;;;5083375;28;20040;-51
2022/09/07 03:32:59;;;;;;;16.73;15.25;;;17.50;99.90;;;;;;5082749;28;20044;-53
2022/09/07 03:35:25;;;;;;;17.20;15.05;;;17.70;99.90;;;;;;5099830;28;20035;-48
2022/09/07 03:37:50;;;;;;;17.77;16.23;;;17.60;99.90;;;;;;5101169;28;20036;-47
2022/09/07 03:40:16;;;;;;;18.83;17.17;;;17.50;99.90;;;;;;5079383;28;20036;-49
2022/09/07 03:42:42;;;;;;;17.83;16.13;;;17.50;99.90;;;;;;5100329;28;20054;-48
2022/09/07 03:45:09;;;;;;;16.30;14.80;;;17.60;99.90;;;;;;5101646;28;20140;-47
2022/09/07 03:47:36;;;;;;;17.73;16.13;;;17.50;99.90;;;;;;5099918;28;20047;-47
2022/09/07 03:50:04;;;;;;;20.00;18.20;;;17.40;99.90;;;;;;5101746;28;20365;-47
2022/09/07 03:52:29;;;;;;;19.00;17.45;;;17.40;99.90;;;;;;5078502;28;20043;-49
2022/09/07 03:54:55;;;;;;;18.83;17.00;;;17.30;99.90;;;;;;5102170;27;20105;-47
2022/09/07 03:57:21;;;;;;;18.65;17.05;;;17.40;99.90;;;;;;5085534;28;20039;-47
2022/09/07 03:59:46;;;;;;;20.30;18.38;;;17.40;99.90;;;;;;5105642;28;20035;-49
2022/09/07 04:02:13;;;;;;;21.25;19.20;;;17.40;99.90;;;;;;5105594;28;20040;-50
2022/09/07 04:04:40;;;;;;;22.27;20.27;;;17.40;99.90;;;;;;5100638;28;20047;-51
2022/09/07 04:07:05;;;;;;;19.00;17.30;;;17.30;99.90;;;;;;5101271;28;20031;-51
2022/09/07 04:09:31;;;;;;;20.48;18.63;;;17.30;99.90;;;;;;5099288;28;20055;-51
2022/09/07 04:11:57;;;;;;;20.85;18.95;;;17.20;99.90;;;;;;5100829;28;20769;-47
2022/09/07 04:14:22;;;;;;;24.13;21.75;;;17.20;99.90;;;;;;5079191;28;20081;-48
2022/09/07 04:16:49;;;;;;;21.00;19.17;;;17.30;99.90;;;;;;5100071;28;20047;-52
2022/09/07 04:19:15;;;;;;;24.77;22.42;;;17.20;99.90;;;;;;5104598;28;20134;-47
2022/09/07 04:21:43;;;;;;;25.30;23.17;;;17.20;99.90;;;;;;5111004;28;20124;-49
2022/09/07 04:24:09;;;;;;;23.10;21.15;;;17.10;99.90;;;;;;5107167;28;20044;-51
2022/09/07 04:26:35;;;;;;;24.85;22.52;;;17.10;99.90;;;;;;5108264;28;20508;-52
2022/09/07 04:29:02;;;;;;;26.20;23.60;;;17.20;99.90;;;;;;5106214;28;20067;-49
2022/09/07 04:31:28;;;;;;;24.95;22.65;;;17.20;99.90;;;;;;5109054;28;20557;-50
2022/09/07 04:33:54;;;;;;;24.02;21.83;;;17.20;99.90;;;;;;5109964;28;20131;-48
2022/09/07 04:36:20;;;;;;;25.85;23.55;;;17.20;99.90;;;;;;5106886;28;20058;-54
2022/09/07 04:38:52;;;;;;;25.77;23.45;;;17.20;99.90;;;;;;5106172;28;20065;-50
2022/09/07 04:41:18;;;;;;;26.38;23.88;;;17.10;99.90;;;;;;5083570;28;20075;-49
2022/09/07 04:43:45;;;;;;;24.67;22.58;;;17.20;99.90;;;;;;5107585;28;20074;-51
2022/09/07 04:46:18;;;;;;;24.25;21.98;;;17.20;99.90;;;;;;5109444;28;20146;-52
2022/09/07 04:48:49;;;;;;;24.85;22.52;;;17.20;99.90;;;;;;5090760;28;20130;-49
2022/09/07 04:51:15;;;;;;;22.98;20.88;;;17.20;99.90;;;;;;5108612;28;21459;-48
2022/09/07 04:53:41;;;;;;;24.10;21.90;;;17.20;99.90;;;;;;5108605;28;20043;-50
2022/09/07 04:56:06;;;;;;;24.27;21.88;;;17.20;99.90;;;;;;5098678;28;20769;-50
2022/09/07 04:58:32;;;;;;;27.60;24.80;;;17.30;99.90;;;;;;5081454;28;20114;-48
2022/09/07 05:01:02;;;;;;;25.52;23.13;;;17.20;99.90;;;;;;5101327;28;20043;-53
2022/09/07 05:03:29;;;;;;;25.75;23.38;;;17.20;99.90;;;;;;5084081;28;20125;-48
2022/09/07 05:05:55;;;;;;;26.15;23.65;;;17.30;99.90;;;;;;5101536;28;20447;-51
2022/09/07 05:08:21;;;;;;;27.80;25.10;;;17.30;99.90;;;;;;5106131;28;21436;-50
2022/09/07 05:10:50;;;;;;;25.75;23.60;;;17.30;99.90;;;;;;5100211;28;20142;-52
2022/09/07 05:13:16;;;;;;;24.63;22.23;;;17.40;99.90;;;;;;5100200;28;20123;-52
2022/09/07 05:15:42;;;;;;;22.80;20.48;;;17.20;99.90;;;;;;5103216;28;20085;-53
2022/09/07 05:18:07;;;;;;;23.67;21.50;;;17.50;99.90;;;;;;5113801;28;20036;-55
2022/09/07 05:20:33;;;;;;;24.70;22.27;;;17.50;99.90;;;;;;5113216;28;20048;-50
2022/09/07 05:22:59;;;;;;;23.58;21.48;;;17.50;99.90;;;;;;5111419;28;20084;-54
2022/09/07 05:25:26;;;;;;;22.70;20.67;;;17.50;99.90;;;;;;5105766;28;20039;-52
2022/09/07 05:27:53;;;;;;;24.30;21.95;;;17.60;99.90;;;;;;5107867;28;20511;-52
2022/09/07 05:30:18;;;;;;;25.90;23.38;;;17.50;99.90;;;;;;5072985;28;20143;-53
2022/09/07 05:32:44;;;;;;;24.33;22.08;;;17.40;99.90;;;;;;5105730;28;20122;-50
2022/09/07 05:35:11;;;;;;;24.77;22.38;;;17.50;99.90;;;;;;5105615;28;20088;-51
2022/09/07 05:37:37;;;;;;;26.95;24.17;;;17.60;99.90;;;;;;5101996;28;20032;-50
2022/09/07 05:40:03;;;;;;;24.52;22.15;;;17.20;99.90;;;;;;5099064;28;20051;-52
2022/09/07 05:42:29;;;;;;;24.60;22.35;;;17.20;99.90;;;;;;5085676;28;20401;-50
2022/09/07 05:44:55;;;;;;;24.58;22.27;;;17.50;99.90;;;;;;5101270;28;20513;-49
2022/09/07 05:47:21;;;;;;;23.75;21.48;;;17.70;99.90;;;;;;5104358;28;20035;-47
2022/09/07 05:49:47;;;;;;;25.63;23.13;;;17.70;99.90;;;;;;5100643;28;20050;-53
2022/09/07 05:52:13;;;;;;;24.27;21.98;;;17.60;99.90;;;;;;5109940;28;20039;-52
2022/09/07 05:54:39;;;;;;;23.77;21.45;;;17.80;99.90;;;;;;5110787;28;20497;-48
2022/09/07 05:57:05;;;;;;;23.63;21.33;;;17.80;99.90;;;;;;5102342;28;20040;-46
2022/09/07 05:59:32;;;;;;;24.30;21.77;;;18.00;99.90;;;;;;5100715;28;20039;-51
2022/09/07 06:01:57;;;;;;;23.17;21.05;;;18.10;99.90;;;;;;5103920;28;20044;-50
2022/09/07 06:04:23;;;;;;;22.40;20.10;;;18.50;99.90;;;;;;5107244;28;20073;-48
2022/09/07 06:06:49;;;;;;;21.17;19.10;;;18.90;99.90;;;;;;5106515;28;20044;-48
2022/09/07 06:09:14;;;;;;;20.33;18.23;;;18.90;99.90;;;;;;5107006;28;20042;-50
2022/09/07 06:11:40;;;;;;;18.83;16.83;;;19.20;99.90;;;;;;5106643;28;20134;-47
2022/09/07 06:14:05;;;;;;;18.95;17.15;;;19.30;99.90;;;;;;5108446;28;20687;-49
2022/09/07 06:16:33;;;;;;;16.88;15.20;;;19.20;99.90;;;;;;5103743;28;20032;-52
2022/09/07 06:19:02;;;;;;;15.98;14.57;;;19.00;99.90;;;;;;5105211;28;20063;-48
2022/09/07 06:21:28;;;;;;;16.27;14.88;;;18.80;99.90;;;;;;5105151;28;20452;-51
2022/09/07 06:23:53;;;;;;;17.08;15.48;;;18.60;99.90;;;;;;5104913;28;20142;-52
2022/09/07 06:26:19;;;;;;;16.92;15.32;;;18.40;99.90;;;;;;5086615;28;20385;-47
2022/09/07 06:28:46;;;;;;;17.92;16.38;;;;;;;;;;5106503;28;20043;-48
2022/09/07 06:31:17;;;;;;;18.13;16.40;;;18.20;99.90;;;;;;5106980;28;20035;-49
2022/09/07 06:33:43;;;;;;;18.52;16.55;;;18.20;99.90;;;;;;5072099;28;20134;-49
2022/09/07 06:36:14;;;;;;;18.83;17.13;;;18.10;99.90;;;;;;5108421;28;20090;-48
2022/09/07 06:38:40;;;;;;;20.50;17.38;;;18.10;99.90;;;;;;5107392;28;20039;-46
2022/09/07 06:41:17;;;;;;;18.85;17.05;;;18.00;99.90;;;;;;5084338;28;20074;-49
2022/09/07 06:43:44;;;;;;;20.73;18.63;;;18.10;99.90;;;;;;5106272;28;20150;-50
2022/09/07 06:46:11;;;;;;;21.13;19.13;;;18.20;99.90;;;;;;5105615;28;20494;-51
2022/09/07 06:48:36;;;;;;;23.05;18.15;;;18.10;99.90;;;;;;5107014;28;20054;-49
2022/09/07 06:51:08;;;;;;;20.77;18.60;;;18.20;99.90;;;;;;5109271;28;20043;-49
2022/09/07 06:53:36;;;;;;;23.45;20.55;;;18.30;99.90;;;;;;5107214;28;20439;-52
2022/09/07 06:56:11;;;;;;;20.60;18.60;;;18.30;99.90;;;;;;5095962;28;20465;-49
2022/09/07 06:58:37;;;;;;;21.77;19.65;;;18.30;99.90;;;;;;5114890;28;20481;-49
2022/09/07 07:01:15;;;;;;;21.45;19.25;;;18.40;99.90;;;;;;5091720;28;20105;-49
2022/09/07 07:03:41;;;;;;;22.17;19.90;;;18.50;99.90;;;;;;5114013;28;20070;-50
2022/09/07 07:06:08;;;;;;;22.92;20.63;;;18.50;99.90;;;;;;5114593;28;20070;-50
2022/09/07 07:08:33;;;;;;;22.60;20.33;;;18.50;99.90;;;;;;5103012;28;20093;-48
2022/09/07 07:11:08;;;;;;;22.50;20.25;;;18.50;99.90;;;;;;5090866;28;20051;-47
2022/09/07 07:13:34;;;;;;;22.67;20.58;;;18.50;99.90;;;;;;5112053;28;20043;-48
2022/09/07 07:16:02;;;;;;;23.10;20.77;;;18.60;99.90;;;;;;5112140;28;20043;-52
2022/09/07 07:18:27;;;;;;;;;;;18.60;99.90;;;;;;5094383;28;20116;-51
2022/09/07 07:20:53;;;;;;;23.30;20.88;;;18.60;99.90;;;;;;5111094;28;20007;-50
2022/09/07 07:23:18;;;;;;;24.77;22.25;;;18.50;99.90;;;;;;5113117;28;20477;-49
2022/09/07 07:25:44;;;;;;;23.33;21.08;;;18.60;99.90;;;;;;5113512;28;20061;-51
2022/09/07 07:28:10;;;;;;;25.48;22.88;;;18.50;99.90;;;;;;5114349;28;20123;-49
2022/09/07 07:30:35;;;;;;;24.48;21.98;;;18.40;99.90;;;;;;5111595;28;20118;-53
2022/09/07 07:33:01;;;;;;;24.70;22.10;;;18.50;99.90;;;;;;5112187;28;20086;-49
2022/09/07 07:35:26;;;;;;;26.42;23.80;;;18.50;99.90;;;;;;5112560;28;20043;-52
2022/09/07 07:37:52;;;;;;;26.27;23.67;;;18.40;99.90;;;;;;5109248;28;20436;-53
2022/09/07 07:40:18;;;;;;;27.05;24.33;;;18.40;99.90;;;;;;5107781;28;20430;-47
2022/09/07 07:42:44;;;;;;;26.73;24.05;;;18.50;99.90;;;;;;5109438;28;20118;-51
2022/09/07 07:45:10;;;;;;;24.83;22.63;;;18.50;99.90;;;;;;5113604;28;20401;-51
2022/09/07 07:47:36;;;;;;;24.60;22.33;;;18.50;99.90;;;;;;5111181;28;20523;-48
2022/09/07 07:50:03;;;;;;;25.20;22.63;;;18.50;99.90;;;;;;5111715;28;20039;-51
2022/09/07 07:52:37;;;;;;;24.48;22.15;;;18.50;99.90;;;;;;5106626;28;20148;-50
2022/09/07 07:55:04;;;;;;;26.00;23.60;;;18.70;99.90;;;;;;5109683;28;20137;-48
2022/09/07 07:57:30;;;;;;;25.98;23.58;;;18.70;99.90;;;;;;5113775;28;20040;-49
2022/09/07 07:59:56;;;;;;;25.55;23.15;;;18.80;99.90;;;;;;5115379;28;20047;-49
2022/09/07 08:02:22;;;;;;;25.58;23.15;;;18.90;99.90;;;;;;5110379;28;20036;-49
2022/09/07 08:04:48;;;;;;;25.55;23.02;;;19.10;99.90;;;;;;5102746;28;20040;-48
2022/09/07 08:07:14;;;;;;;25.30;23.02;;;19.30;99.90;;;;;;5111251;28;20039;-46
2022/09/07 08:09:42;;;;;;;24.10;22.00;;;19.40;99.90;;;;;;5107992;28;20043;-49
2022/09/07 08:12:10;;;;;;;24.17;22.02;;;19.50;99.90;;;;;;5110244;28;20104;-51
2022/09/07 08:14:39;;;;;;;;;;;19.60;99.90;;;;;;5114822;28;20071;-51
2022/09/07 08:17:09;;;;;;;27.42;20.45;;;19.70;99.90;;;;;;5114241;28;19941;-48
2022/09/07 08:19:34;;;;;;;23.85;21.60;;;19.70;99.90;;;;;;5113889;28;20101;-47
2022/09/07 08:22:00;;;;;;;24.20;21.95;;;19.70;99.90;;;;;;5110078;28;20465;-49
2022/09/07 08:24:25;;;;;;;22.88;20.65;;;19.70;99.90;;;;;;5108364;28;20409;-48
2022/09/07 08:26:51;;;;;;;23.20;21.10;;;19.70;99.90;;;;;;5111804;28;20032;-48
2022/09/07 08:29:17;;;;;;;23.77;21.45;;;19.60;99.90;;;;;;5112769;28;20049;-49
2022/09/07 08:31:43;;;;;;;23.05;20.95;;;19.60;99.90;;;;;;5109944;28;20051;-48
2022/09/07 08:34:09;;;;;;;23.58;21.17;;;19.50;99.90;;;;;;5111651;28;20052;-49
2022/09/07 08:36:35;;;;;;;22.33;20.40;;;19.60;99.90;;;;;;5108948;28;20036;-46
2022/09/07 08:39:01;;;;;;;23.83;21.52;;;19.70;99.90;;;;;;5110702;28;20048;-48
2022/09/07 08:41:40;;;;;;;23.42;21.15;;;19.60;99.90;;;;;;5112983;28;20126;-48
2022/09/07 08:44:19;;;;;;;23.63;21.33;;;19.60;99.90;;;;;;5104460;28;20039;-49
2022/09/07 08:47:20;;;;;;;24.02;21.83;;;19.70;99.90;;;;;;5111345;28;20130;-47
2022/09/07 08:50:20;;;;;;;21.83;19.83;;;19.80;99.90;;;;;;5029797;28;20049;-47
2022/09/07 08:52:50;;;;;;;21.38;19.42;;;19.90;99.90;;;;;;5028339;28;20053;-53
2022/09/07 08:55:32;;;;;;;22.20;20.10;;;19.90;99.90;;;;;;5024055;28;20041;-46
2022/09/07 08:58:11;;;;;;;22.23;20.08;;;19.90;99.90;;;;;;5030233;28;20077;-50
2022/09/07 09:00:38;;;;;;;22.25;20.13;;;20.00;99.90;;;;;;5028988;28;20053;-49
2022/09/07 09:03:11;;;;;;;20.57;18.87;;;20.20;99.90;;;;;;5028957;28;20053;-50
2022/09/07 09:05:47;;;;;;;20.35;18.35;;;20.50;99.90;;;;;;5010397;28;20049;-49
2022/09/07 09:08:28;;;;;;;18.90;17.15;;;20.40;99.90;;;;;;5028616;28;20045;-50
2022/09/07 09:11:04;;;;;;;20.17;18.38;;;20.30;99.90;;;;;;5026244;28;20064;-52
2022/09/07 09:13:57;;;;;;;19.02;17.35;;;20.40;99.90;;;;;;5027404;28;20500;-50
2022/09/07 09:16:45;;;;;;;21.55;19.45;;;20.40;99.90;;;;;;5027978;28;20045;-50
2022/09/07 09:19:44;;;;;;;21.15;18.98;;;20.50;99.90;;;;;;5017333;28;20108;-49
2022/09/07 09:22:18;;;;;;;21.17;19.17;;;20.50;99.90;;;;;;5030213;28;20128;-49
2022/09/07 09:24:47;;;;;;;20.05;18.15;;;20.60;99.90;;;;;;5010314;28;20068;-48
2022/09/07 09:27:14;;;;;;;22.05;19.85;;;20.60;99.90;;;;;;5107305;28;20421;-48
2022/09/07 09:29:40;;;;;;;19.88;17.83;;;20.70;99.90;;;;;;5110796;28;20040;-52
2022/09/07 09:32:38;;;;;;;19.85;17.90;;;21.00;99.90;;;;;;5103003;28;20048;-48
2022/09/07 09:35:27;;;;;;;19.50;17.50;;;21.40;99.90;;;;;;5101639;28;20043;-48
2022/09/07 09:37:53;;;;;;;18.70;17.10;;;21.60;99.90;;;;;;5098516;28;20048;-50
2022/09/07 09:40:26;;;;;;;18.13;16.38;;;21.70;99.90;;;;;;5108658;28;20077;-49
2022/09/07 09:43:04;;;;;;;18.58;16.85;;;21.60;99.90;;;;;;5107801;28;20054;-50
2022/09/07 09:45:35;;;;;;;18.48;16.70;;;21.40;99.90;;;;;;5108813;28;20039;-50
2022/09/07 09:48:09;;;;;;;17.80;16.10;;;21.20;99.90;;;;;;5112674;28;20135;-47
2022/09/07 09:50:38;;;;;;;18.13;16.52;;;21.10;99.90;;;;;;5110678;28;20043;-49
2022/09/07 09:53:05;;;;;;;17.50;15.55;;;21.10;99.90;;;;;;5101730;28;20040;-47
2022/09/07 09:55:36;;;;;;;18.13;16.50;;;21.30;99.90;;;;;;5107634;28;20421;-49
2022/09/07 09:58:24;;;;;;;17.83;16.13;;;21.60;99.90;;;;;;5102619;28;20044;-52
2022/09/07 10:01:05;;;;;;;18.45;16.65;;;21.80;99.90;;;;;;5103536;28;20048;-52
2022/09/07 10:03:33;;;;;;;17.27;15.57;;;21.90;99.90;;;;;;5105027;28;20401;-48
2022/09/07 10:06:15;;;;;;;17.45;15.93;;;22.00;99.90;;;;;;5109949;28;20039;-50
2022/09/07 10:08:56;;;;;;;17.67;16.05;;;22.00;99.90;;;;;;5109217;28;20100;-50
2022/09/07 10:11:46;;;;;;;17.52;15.88;;;22.00;99.90;;;;;;5106271;28;20075;-48
2022/09/07 10:14:28;;;;;;;17.20;15.80;;;22.10;99.90;;;;;;5107771;28;20092;-48
2022/09/07 10:16:54;;;;;;;16.30;14.90;;;22.10;99.90;;;;;;5104677;28;20046;-45
2022/09/07 10:19:29;;;;;;;16.48;15.07;;;22.30;99.90;;;;;;5111605;28;20032;-46
2022/09/07 10:21:57;;;;;;;14.82;13.43;;;22.50;99.90;;;;;;5111368;28;20058;-45
2022/09/07 10:24:26;;;;;;;14.52;13.38;;;22.60;99.90;;;;;;5108893;28;20039;-46
2022/09/07 10:26:52;;;;;;;16.65;12.90;;;22.50;99.90;;;;;;5109701;28;20043;-46
2022/09/07 10:29:34;;;;;;;13.85;12.57;;;22.30;99.90;;;;;;5092724;28;20700;-47
2022/09/07 10:32:19;;;;;;;15.93;13.18;;;22.20;99.90;;;;;;5114580;28;20401;-52
2022/09/07 10:34:57;;;;;;;14.02;12.63;;;22.40;99.90;;;;;;5115035;28;20050;-48
2022/09/07 10:37:58;;;;;;;13.20;12.00;;;22.60;99.90;;;;;;5112037;28;20051;-50
2022/09/07 10:40:34;;;;;;;10.88;9.88;;;22.60;99.90;;;;;;5098446;28;20052;-48
2022/09/07 10:43:19;;;;;;;12.07;11.15;;;22.50;99.90;;;;;;5086817;28;20043;-46
2022/09/07 10:46:06;;;;;;;12.35;11.30;;;22.60;99.90;;;;;;5107244;28;20040;-47
2022/09/07 10:49:10;;;;;;;12.65;11.35;;;22.80;99.90;;;;;;5109329;28;20773;-50
2022/09/07 10:51:53;;;;;;;11.93;10.82;;;22.90;99.90;;;;;;5094256;28;20105;-46
2022/09/07 10:54:52;;;;;;;11.25;10.30;;;23.20;99.90;;;;;;5091926;28;20043;-46
2022/09/07 10:57:31;;;;;;;9.95;9.15;;;23.20;99.90;;;;;;5113345;28;20048;-49
2022/09/07 11:00:10;;;;;;;9.93;8.95;;;23.40;99.90;;;;;;5113876;28;20482;-49
2022/09/07 11:02:47;;;;;;;11.32;10.15;;;23.50;99.90;;;;;;5114311;28;20039;-46
2022/09/07 11:05:31;;;;;;;10.30;9.43;;;23.50;99.90;;;;;;5112928;28;20043;-49
2022/09/07 11:08:06;;;;;;;11.68;10.57;;;23.80;99.90;;;;;;5112028;28;20040;-46
2022/09/07 11:10:38;;;;;;;10.95;9.95;;;24.10;99.90;;;;;;5114645;28;20122;-47
2022/09/07 11:13:09;;;;;;;11.02;10.13;;;24.10;99.90;;;;;;5115937;28;20047;-47
2022/09/07 11:15:55;;;;;;;11.05;10.15;;;23.90;99.90;;;;;;5108707;28;20169;-50
2022/09/07 11:18:26;;;;;;;11.75;9.80;;;23.90;99.90;;;;;;5112714;28;20031;-46
2022/09/07 11:21:00;;;;;;;10.13;9.07;;;23.70;99.90;;;;;;5111393;28;20046;-48
2022/09/07 11:23:43;;;;;;;10.63;9.73;;;23.70;99.90;;;;;;5112566;28;20045;-48
2022/09/07 11:26:30;;;;;;;10.45;9.57;;;23.70;99.90;;;;;;5114542;28;20036;-49
2022/09/07 11:29:07;;;;;;;9.68;8.70;;;23.50;99.90;;;;;;5106617;28;20047;-48
2022/09/07 11:31:39;;;;;;;9.82;8.95;;;23.70;99.90;;;;;;5106639;28;20075;-46
2022/09/07 11:34:36;;;;;;;9.65;8.73;;;23.70;99.90;;;;;;5072744;28;20048;-49
2022/09/07 11:37:10;;;;;;;10.40;9.50;;;23.90;99.90;;;;;;5111070;28;20039;-46
2022/09/07 11:39:45;;;;;;;10.23;9.35;;;24.00;99.90;;;;;;5112201;28;20040;-46
2022/09/07 11:42:36;;;;;;;9.88;9.05;;;24.00;99.90;;;;;;5093299;28;20047;-47
2022/09/07 11:45:12;;;;;;;10.07;9.07;;;23.90;99.90;;;;;;5111630;28;20047;-45
2022/09/07 11:47:46;;;;;;;11.32;9.00;;;23.70;99.90;;;;;;5111919;28;20055;-43
2022/09/07 11:50:16;;;;;;;9.68;8.77;;;23.70;99.90;;;;;;5106025;28;20052;-47
2022/09/07 11:52:47;;;;;;;9.15;8.45;;;23.90;99.90;;;;;;5105984;28;20040;-47
2022/09/07 11:55:26;;;;;;;9.48;8.57;;;24.20;99.90;;;;;;5113838;28;20031;-47
2022/09/07 11:58:30;;;;;;;9.52;7.50;;;24.40;99.90;;;;;;5112376;28;20512;-47
2022/09/07 12:01:04;;;;;;;9.20;8.18;;;24.50;99.90;;;;;;5084113;28;20517;-46
2022/09/07 12:03:48;;;;;;;8.57;7.88;;;24.50;99.90;;;;;;5098889;28;20448;-49
2022/09/07 12:06:43;;;;;;;7.55;6.93;;;24.60;99.90;;;;;;5106462;28;20043;-46
2022/09/07 12:09:26;;;;;;;8.88;7.50;;;24.70;99.90;;;;;;5113272;28;20042;-46
2022/09/07 12:12:32;;;;;;;8.10;7.40;;;24.70;99.90;;;;;;5112025;28;20520;-47
2022/09/07 12:15:09;;;;;;;7.90;7.20;;;24.60;99.90;;;;;;5113308;28;20397;-46
2022/09/07 12:17:44;;;;;;;7.57;6.88;;;24.70;99.90;;;;;;5111995;28;20054;-47
2022/09/07 12:20:16;;;;;;;7.50;6.90;;;24.80;99.90;;;;;;5112499;28;20075;-49
2022/09/07 12:23:03;;;;;;;8.00;7.25;;;24.70;99.90;;;;;;5104404;28;20130;-47
2022/09/07 12:25:29;;;;;;;6.40;5.90;;;25.00;99.90;;;;;;5107355;28;20051;-49
2022/09/07 12:27:56;;;;;;;7.43;6.65;;;25.10;99.90;;;;;;5111631;28;20040;-46
2022/09/07 12:30:22;;;;;;;8.23;7.45;;;25.20;99.90;;;;;;5113639;28;20039;-47
2022/09/07 12:32:57;;;;;;;7.60;6.88;;;25.30;99.90;;;;;;5110410;28;20523;-46
2022/09/07 12:35:25;;;;;;;7.25;6.65;;;25.20;99.90;;;;;;5107960;28;20039;-46
2022/09/07 12:37:55;;;;;;;6.85;6.25;;;25.40;99.90;;;;;;5111469;28;20049;-50
2022/09/07 12:40:27;;;;;;;7.80;7.10;;;25.20;99.90;;;;;;5108089;28;20074;-48
2022/09/07 12:43:11;;;;;;;6.15;5.65;;;25.10;99.90;;;;;;5111178;28;20046;-47
2022/09/07 12:45:36;;;;;;;5.88;5.32;;;25.10;99.90;;;;;;5113300;28;20522;-52
2022/09/07 12:48:16;;;;;;;5.55;5.03;;;25.10;99.90;;;;;;5095111;28;20036;-50
2022/09/07 12:51:08;;;;;;;6.63;6.00;;;25.10;99.90;;;;;;5111381;28;20051;-48
2022/09/07 12:53:45;;;;;;;6.85;6.25;;;25.10;99.90;;;;;;5103217;28;20665;-46
2022/09/07 12:56:23;;;;;;;6.70;5.97;;;24.80;99.90;;;;;;5107412;28;20489;-46
2022/09/07 12:58:58;;;;;;;6.03;5.43;;;25.00;99.90;;;;;;5113007;28;20043;-48